Time;durP1;ratioP1;P1;durP2;ratioP2;P2;SDS_P1;SDS_P2;PMS_P1;PMS_P2;Temp;Humidity;BMP_temperature;BMP_pressure;BME280_temperature;BME280_humidity;BME280_pressure;Samples;Min_cycle;Max_cycle;Signal;HPM_P1;HPM_P2
2022/08/27 00:01:17;;;;;;;;;;;;;;;;;;5019464;28;20286;-88
2022/08/27 00:03:43;;;;;;;;;;;;;;;;;;5004910;28;20496;-88
2022/08/27 00:06:08;;;;;;;;;;;;;;;;;;5020044;28;19909;-88
2022/08/27 00:08:33;;;;;;;;;;;;;;;;;;5016852;28;19953;-88
2022/08/27 00:10:58;;;;;;;;;;;;;;;;;;5012458;28;20004;-88
2022/08/27 00:13:23;;;;;;;;;;;;;;;;;;4993900;28;19914;-88
2022/08/27 00:15:49;;;;;;;;;;;;;;;;;;5017315;28;20308;-88
2022/08/27 00:18:14;;;;;;;;;;;;;;;;;;5024677;28;19917;-88
2022/08/27 00:20:39;;;;;;;;;;;;;;;;;;5015878;28;19909;-87
2022/08/27 00:23:04;;;;;;;;;;;;;;;;;;5003305;28;19913;-88
2022/08/27 00:25:29;;;;;;;;;;;;;;;;;;5003384;28;20365;-86
2022/08/27 00:27:55;;;;;;;;;;;;;;;;;;5019894;28;20011;-88
2022/08/27 00:30:20;;;;;;;;;;;;;;;;;;5017465;28;19910;-86
2022/08/27 00:32:45;;;;;;;;;;;;;;;;;;5016885;28;20656;-87
2022/08/27 00:35:10;;;;;;;;;;;;;;;;;;5017457;28;19910;-87
2022/08/27 00:37:36;;;;;;;;;;;;;;;;;;5019500;28;19916;-89
2022/08/27 00:40:01;;;;;;;;;;;;;;;;;;5019005;28;20483;-88
2022/08/27 00:42:26;;;;;;;;;;;;;;;;;;5017024;28;19916;-88
2022/08/27 00:44:51;;;;;;;;;;;;;;;;;;5016269;28;19917;-88
2022/08/27 00:47:16;;;;;;;;;;;;;;;;;;5018222;28;20412;-88
2022/08/27 00:49:42;;;;;;;;;;;;;;;;;;5001437;28;19906;-89
2022/08/27 00:52:07;;;;;;;;;;;;;;;;;;5016533;28;19949;-88
2022/08/27 00:54:32;;;;;;;;;;;;;;;;;;5019692;28;19913;-88
2022/08/27 00:56:57;;;;;;;;;;;;;;;;;;5020133;28;19909;-89
2022/08/27 00:59:22;;;;;;;;;;;;;;;;;;5015799;28;19912;-88
2022/08/27 01:04:32;;;;;;;;;;;;;;;;;;4998173;28;19922;-88
2022/08/27 01:06:57;;;;;;;;;;;;;;;;;;5015776;28;20012;-89
2022/08/27 01:09:22;;;;;;;;;;;;;;;;;;5001918;28;19910;-88
2022/08/27 01:11:47;;;;;;;;;;;;;;;;;;5019197;28;19905;-88
2022/08/27 01:14:12;;;;;;;;;;;;;;;;;;5017913;28;19909;-88
2022/08/27 01:16:38;;;;;;;;;;;;;;;;;;5015445;28;20255;-88
2022/08/27 01:19:04;;;;;;;;;;;;;;;;;;5015179;28;19925;-87
2022/08/27 01:21:29;;;;;;;;;;;;;;;;;;5006695;28;20634;-89
2022/08/27 01:23:54;;;;;;;;;;;;;;;;;;5010510;28;19961;-88
2022/08/27 01:26:19;;;;;;;;;;;;;;;;;;4985014;28;20008;-89
2022/08/27 01:28:44;;;;;;;;;;;;;;;;;;5002619;28;20004;-89
2022/08/27 01:31:09;;;;;;;;;;;;;;;;;;5017158;28;20384;-88
2022/08/27 01:33:35;;;;;;;;;;;;;;;;;;5017282;28;20001;-88
2022/08/27 01:36:00;;;;;;;;;;;;;;;;;;5017157;28;19910;-87
2022/08/27 01:38:26;;;;;;;;;;;;;;;;;;5004456;28;19910;-88
2022/08/27 01:40:51;;;;;;;;;;;;;;;;;;5014805;28;20397;-88
2022/08/27 01:43:16;;;;;;;;;;;;;;;;;;4996547;28;20353;-87
2022/08/27 01:45:42;;;;;;;;;;;;;;;;;;5018346;28;19920;-88
2022/08/27 01:48:07;;;;;;;;;;;;;;;;;;5004092;28;19913;-89
2022/08/27 01:50:34;;;;;;;;;;;;;;;;;;5019649;28;20381;-88
2022/08/27 01:53:00;;;;;;;;;;;;;;;;;;5019583;28;19914;-88
2022/08/27 01:55:25;;;;;;;;;;;;;;;;;;5022118;28;20711;-87
2022/08/27 01:57:50;;;;;;;;;;;;;;;;;;5002932;28;19920;-88
2022/08/27 02:00:15;;;;;;;;;;;;;;;;;;5020871;28;19906;-88
2022/08/27 02:02:40;;;;;;;;;;;;;;;;;;5021015;28;19987;-88
2022/08/27 02:05:06;;;;;;;;;;;;;;;;;;5018526;28;19909;-88
2022/08/27 02:07:31;;;;;;;;;;;;;;;;;;5022727;28;19909;-88
2022/08/27 02:09:56;;;;;;;;;;;;;;;;;;5005541;28;19912;-89
2022/08/27 02:12:21;;;;;;;;;;;;;;;;;;5020011;28;19920;-88
2022/08/27 02:14:46;;;;;;;;;;;;;;;;;;5003561;28;20332;-88
2022/08/27 02:17:11;;;;;;;;;;;;;;;;;;5022810;28;19910;-89
2022/08/27 02:19:37;;;;;;;;;;;;;;;;;;5018675;28;19969;-89
2022/08/27 02:22:02;;;;;;;;;;;;;;;;;;5018706;28;19909;-88
2022/08/27 02:24:27;;;;;;;;;;;;;;;;;;4992249;28;19909;-88
2022/08/27 02:26:54;;;;;;;;;;;;;;;;;;5022842;28;20396;-89
2022/08/27 02:29:19;;;;;;;;;;;;;;;;;;5019514;28;19906;-89
2022/08/27 02:31:44;;;;;;;;;;;;;;;;;;5018187;28;19964;-88
2022/08/27 02:34:09;;;;;;;;;;;;;;;;;;5002379;28;19910;-88
2022/08/27 02:36:36;;;;;;;;;;;;;;;;;;5021913;28;19996;-87
2022/08/27 02:39:01;;;;;;;;;;;;;;;;;;5021655;28;20393;-88
2022/08/27 02:41:26;;;;;;;;;;;;;;;;;;5019702;28;19909;-89
2022/08/27 02:43:51;;;;;;;;;;;;;;;;;;5019970;28;19913;-88
2022/08/27 02:46:17;;;;;;;;;;;;;;;;;;5021880;28;19934;-87
2022/08/27 02:48:42;;;;;;;;;;;;;;;;;;5021490;28;20424;-89
2022/08/27 02:51:08;;;;;;;;;;;;;;;;;;5020653;28;20004;-88
2022/08/27 02:53:33;;;;;;;;;;;;;;;;;;5017300;28;19927;-88
2022/08/27 02:55:58;;;;;;;;;;;;;;;;;;5001746;28;19917;-88
2022/08/27 02:58:23;;;;;;;;;;;;;;;;;;5020796;28;19921;-89
2022/08/27 03:00:48;;;;;;;;;;;;;;;;;;5018261;28;20624;-88
2022/08/27 03:03:14;;;;;;;;;;;;;;;;;;5018150;28;19967;-90
2022/08/27 03:05:39;;;;;;;;;;;;;;;;;;5021293;28;20657;-87
2022/08/27 03:08:04;;;;;;;;;;;;;;;;;;5017211;28;19913;-89
2022/08/27 03:10:29;;;;;;;;;;;;;;;;;;5025781;28;20564;-88
2022/08/27 03:12:55;;;;;;;;;;;;;;;;;;5018137;28;20251;-87
2022/08/27 03:15:20;;;;;;;;;;;;;;;;;;5026163;28;19909;-88
2022/08/27 03:20:29;;;;;;;;;;;;;;;;;;4994180;28;19979;-88
2022/08/27 03:22:54;;;;;;;;;;;;;;;;;;5001500;28;20367;-88
2022/08/27 03:25:19;;;;;;;;;;;;;;;;;;5019505;28;20028;-88
2022/08/27 03:27:45;;;;;;;;;;;;;;;;;;5021392;28;19999;-88
2022/08/27 03:30:10;;;;;;;;;;;;;;;;;;4999632;28;20318;-88
2022/08/27 03:32:35;;;;;;;;;;;;;;;;;;5023638;28;19949;-88
2022/08/27 03:35:00;;;;;;;;;;;;;;;;;;5022550;28;20008;-88
2022/08/27 03:37:26;;;;;;;;;;;;;;;;;;5018347;28;20385;-89
2022/08/27 03:39:51;;;;;;;;;;;;;;;;;;5019955;28;19910;-89
2022/08/27 03:42:16;;;;;;;;;;;;;;;;;;4992229;28;19912;-88
2022/08/27 03:44:41;;;;;;;;;;;;;;;;;;5021468;28;20414;-87
2022/08/27 03:47:06;;;;;;;;;;;;;;;;;;5023863;28;19912;-89
2022/08/27 03:49:31;;;;;;;;;;;;;;;;;;5023170;28;19957;-89
2022/08/27 03:51:57;;;;;;;;;;;;;;;;;;5021120;28;19961;-88
2022/08/27 03:54:23;;;;;;;;;;;;;;;;;;5026213;28;19916;-88
2022/08/27 03:56:49;;;;;;;;;;;;;;;;;;5021710;28;19924;-88
2022/08/27 03:59:14;;;;;;;;;;;;;;;;;;4979150;28;19914;-88
2022/08/27 04:01:39;;;;;;;;;;;;;;;;;;5023178;28;19912;-88
2022/08/27 04:04:05;;;;;;;;;;;;;;;;;;5020157;28;19945;-86
2022/08/27 04:06:30;;;;;;;;;;;;;;;;;;5023695;28;20004;-87
2022/08/27 04:08:55;;;;;;;;;;;;;;;;;;5020336;28;20346;-88
2022/08/27 04:11:21;;;;;;;;;;;;;;;;;;5005150;28;19960;-87
2022/08/27 04:13:46;;;;;;;;;;;;;;;;;;5020462;28;19921;-88
2022/08/27 04:16:11;;;;;;;;;;;;;;;;;;5020594;28;20084;-88
2022/08/27 04:18:36;;;;;;;;;;;;;;;;;;5023871;28;19916;-88
2022/08/27 04:21:01;;;;;;;;;;;;;;;;;;5018503;28;19912;-88
2022/08/27 04:23:26;;;;;;;;;;;;;;;;;;5022498;28;19913;-88
2022/08/27 04:25:52;;;;;;;;;;;;;;;;;;5019289;28;19992;-88
2022/08/27 04:28:17;;;;;;;;;;;;;;;;;;5020575;28;19969;-88
2022/08/27 04:30:43;;;;;;;;;;;;;;;;;;5021792;28;19905;-88
2022/08/27 04:33:08;;;;;;;;;;;;;;;;;;5017912;28;20012;-88
2022/08/27 04:35:33;;;;;;;;;;;;;;;;;;5021465;28;19948;-88
2022/08/27 04:37:58;;;;;;;;;;;;;;;;;;5014194;28;19913;-89
2022/08/27 04:41:18;;;;;;;;;;;;;;;;;;5003464;28;19916;-88
2022/08/27 04:43:09;;;;;;;;;;;;;;;;;;5004272;28;19910;-88
2022/08/27 04:45:34;;;;;;;;;;;;;;;;;;5023694;28;19960;-88
2022/08/27 04:47:59;;;;;;;;;;;;;;;;;;5022862;28;19913;-88
2022/08/27 04:50:24;;;;;;;;;;;;;;;;;;5022953;28;19905;-88
2022/08/27 04:52:55;;;;;;;;;;;;;;;;;;5022133;28;19938;-88
2022/08/27 04:55:20;;;;;;;;;;;;;;;;;;5019813;28;20277;-87
2022/08/27 04:57:45;;;;;;;;;;;;;;;;;;5016077;28;20401;-88
2022/08/27 05:00:11;;;;;;;;;;;;;;;;;;5028295;28;20377;-88
2022/08/27 05:02:36;;;;;;;;;;;;;;;;;;5004574;28;19906;-87
2022/08/27 05:05:01;;;;;;;;;;;;;;;;;;5020687;28;19999;-89
2022/08/27 05:07:26;;;;;;;;;;;;;;;;;;5018145;28;20011;-88
2022/08/27 05:09:51;;;;;;;;;;;;;;;;;;5016916;28;19910;-89
2022/08/27 05:12:16;;;;;;;;;;;;;;;;;;5018867;28;20351;-89
2022/08/27 05:14:42;;;;;;;;;;;;;;;;;;5019529;28;19917;-89
2022/08/27 05:17:07;;;;;;;;;;;;;;;;;;5020351;28;20386;-89
2022/08/27 05:19:32;;;;;;;;;;;;;;;;;;5000477;28;19913;-88
2022/08/27 05:21:57;;;;;;;;;;;;;;;;;;5016370;28;19909;-89
2022/08/27 05:24:23;;;;;;;;;;;;;;;;;;5021441;28;19909;-89
2022/08/27 05:26:48;;;;;;;;;;;;;;;;;;5023539;28;20001;-88
2022/08/27 05:29:13;;;;;;;;;;;;;;;;;;5030366;23;19983;-77
2022/08/27 05:31:38;;;;;;;;;;;;;;;;;;5041608;28;20791;-77
2022/08/27 05:34:04;;;;;;;;;;;;;;;;;;5025681;28;19921;-77
2022/08/27 05:36:30;;;;;;;;;;;;;;;;;;5037245;28;19938;-76
2022/08/27 05:38:55;;;;;;;;;;;;;;;;;;5025239;28;20263;-76
2022/08/27 05:41:20;;;;;;;;;;;;;;;;;;5021924;28;19984;-78
2022/08/27 05:43:45;;;;;;;;;;;;;;;;;;5028372;28;19909;-80
2022/08/27 05:46:10;;;;;;;;;;;;;;;;;;5024766;28;20358;-78
2022/08/27 05:48:36;;;;;;;;;;;;;;;;;;5026640;28;20290;-79
2022/08/27 05:51:01;;;;;;;;;;;;;;;;;;5037958;28;19912;-79
2022/08/27 05:53:26;;;;;;;;;;;;;;;;;;5025901;28;19909;-78
2022/08/27 05:55:51;;;;;;;;;;;;;;;;;;5038232;28;19909;-79
2022/08/27 06:01:04;;;;;;;;;;;;;;;;;;5021285;28;19909;-79
2022/08/27 06:03:29;;;;;;;;;;;;;;;;;;5023069;28;19909;-78
2022/08/27 06:05:54;;;;;;;;;;;;;;;;;;5028933;28;19928;-79
2022/08/27 06:08:19;;;;;;;;;;;;;;;;;;5027355;28;19913;-80
2022/08/27 06:10:45;;;;;;;;;;;;;;;;;;5027332;28;19913;-80
2022/08/27 06:13:10;;;;;;;;;;;;;;;;;;5011050;28;19912;-79
2022/08/27 06:15:36;;;;;;;;;;;;;;;;;;5027071;28;20318;-78
2022/08/27 06:18:01;;;;;;;;;;;;;;;;;;5021727;28;19905;-78
2022/08/27 06:20:27;;;;;;;;;;;;;;;;;;5030311;28;20405;-78
2022/08/27 06:22:52;;;;;;;;;;;;;;;;;;5010019;28;19912;-78
2022/08/27 06:25:17;;;;;;;;;;;;;;;;;;5026434;28;19920;-78
2022/08/27 06:27:42;;;;;;;;;;;;;;;;;;5027335;28;19905;-78
2022/08/27 06:30:07;;;;;;;;;;;;;;;;;;5002969;28;20386;-78
2022/08/27 06:32:32;;;;;;;;;;;;;;;;;;5026212;28;19912;-78
2022/08/27 06:34:58;;;;;;;;;;;;;;;;;;5026044;28;19937;-78
2022/08/27 06:37:23;;;;;;;;;;;;;;;;;;5009745;28;20274;-78
2022/08/27 06:39:48;;;;;;;;;;;;;;;;;;5009410;28;19915;-79
2022/08/27 06:42:13;;;;;;;;;;;;;;;;;;5011415;28;19964;-77
2022/08/27 06:44:38;;;;;;;;;;;;;;;;;;5012448;28;19921;-77
2022/08/27 06:47:04;;;;;;;;;;;;;;;;;;5011735;28;20028;-77
2022/08/27 06:49:29;;;;;;;;;;;;;;;;;;5026225;28;20304;-76
2022/08/27 06:51:54;;;;;;;;;;;;;;;;;;5013746;28;19916;-76
2022/08/27 06:54:19;;;;;;;;;;;;;;;;;;5025017;28;20297;-76
2022/08/27 06:56:45;;;;;;;;;;;;;;;;;;5025951;28;19961;-76
2022/08/27 06:59:10;;;;;;;;;;;;;;;;;;5009711;28;19909;-76
2022/08/27 07:01:35;;;;;;;;;;;;;;;;;;5008424;28;19905;-76
2022/08/27 07:04:00;;;;;;;;;;;;;;;;;;5025439;28;19909;-76
2022/08/27 07:06:26;;;;;;;;;;;;;;;;;;5009613;28;19910;-77
2022/08/27 07:08:51;;;;;;;;;;;;;;;;;;5026191;28;19916;-76
2022/08/27 07:11:16;;;;;;;;;;;;;;;;;;5025287;28;19928;-76
2022/08/27 07:13:41;;;;;;;;;;;;;;;;;;5008204;28;19909;-76
2022/08/27 07:16:06;;;;;;;;;;;;;;;;;;5024647;28;19932;-75
2022/08/27 07:18:32;;;;;;;;;;;;;;;;;;5024414;28;19996;-76
2022/08/27 07:20:57;;;;;;;;;;;;;;;;;;5008243;28;19928;-76
2022/08/27 07:23:22;;;;;;;;;;;;;;;;;;5023796;28;19909;-76
2022/08/27 07:25:47;;;;;;;;;;;;;;;;;;5019432;28;19917;-76
2022/08/27 07:28:13;;;;;;;;;;;;;;;;;;5033972;28;19909;-76
2022/08/27 07:30:38;;;;;;;;;;;;;;;;;;5016936;28;19905;-76
2022/08/27 07:33:04;;;;;;;;;;;;;;;;;;5026128;28;19917;-76
2022/08/27 07:35:30;;;;;;;;;;;;;;;;;;5012108;28;20358;-76
2022/08/27 07:37:55;;;;;;;;;;;;;;;;;;5020585;28;20365;-77
2022/08/27 07:40:20;;;;;;;;;;;;;;;;;;5017274;28;20226;-76
2022/08/27 07:45:30;;;;;;;;;;;;;;;;;;5015995;28;19927;-76
2022/08/27 07:47:55;;;;;;;;;;;;;;;;;;5022177;28;19906;-76
2022/08/27 07:50:20;;;;;;;;;;;;;;;;;;5022808;28;20012;-76
2022/08/27 07:52:45;;;;;;;;;;;;;;;;;;5024077;28;19996;-76
2022/08/27 07:55:11;;;;;;;;;;;;;;;;;;5024267;28;20259;-76
2022/08/27 07:57:36;;;;;;;;;;;;;;;;;;5024114;28;19913;-78
2022/08/27 08:00:01;;;;;;;;;;;;;;;;;;5019881;28;20351;-77
2022/08/27 08:02:26;;;;;;;;;;;;;;;;;;5007919;28;19905;-79
2022/08/27 08:04:51;;;;;;;;;;;;;;;;;;5024357;28;19971;-79
2022/08/27 08:07:17;;;;;;;;;;;;;;;;;;5028009;28;20333;-78
2022/08/27 08:09:42;;;;;;;;;;;;;;;;;;5026082;28;19909;-78
2022/08/27 08:12:07;;;;;;;;;;;;;;;;;;5023005;28;20266;-79
2022/08/27 08:14:32;;;;;;;;;;;;;;;;;;5023508;28;19909;-78
2022/08/27 08:16:57;;;;;;;;;;;;;;;;;;5032166;28;19909;-78
2022/08/27 08:19:23;;;;;;;;;;;;;;;;;;5022790;28;19967;-79
2022/08/27 08:21:48;;;;;;;;;;;;;;;;;;5034201;28;20393;-79
2022/08/27 08:24:14;;;;;;;;;;;;;;;;;;5008487;28;19913;-79
2022/08/27 08:26:40;;;;;;;;;;;;;;;;;;5013349;28;19918;-79
2022/08/27 08:29:06;;;;;;;;;;;;;;;;;;5009237;28;19916;-78
2022/08/27 08:31:31;;;;;;;;;;;;;;;;;;5006135;28;19909;-79
2022/08/27 08:33:56;;;;;;;;;;;;;;;;;;5030955;28;20004;-78
2022/08/27 08:36:21;;;;;;;;;;;;;;;;;;5013307;28;20208;-78
2022/08/27 08:38:47;;;;;;;;;;;;;;;;;;5008464;28;19971;-78
2022/08/27 08:41:12;;;;;;;;;;;;;;;;;;5024795;28;19905;-79
2022/08/27 08:43:37;;;;;;;;;;;;;;;;;;5023830;28;20378;-78
2022/08/27 08:46:02;;;;;;;;;;;;;;;;;;5035619;28;19978;-79
2022/08/27 08:48:28;;;;;;;;;;;;;;;;;;5006289;28;19917;-78
2022/08/27 08:50:53;;;;;;;;;;;;;;;;;;5008951;28;19978;-78
2022/08/27 08:53:18;;;;;;;;;;;;;;;;;;5007726;28;19917;-79
2022/08/27 08:55:45;;;;;;;;;;;;;;;;;;5004645;28;20375;-79
2022/08/27 08:58:11;;;;;;;;;;;;;;;;;;5008488;28;19909;-78
2022/08/27 09:00:36;;;;;;;;;;;;;;;;;;5005359;28;19928;-78
2022/08/27 09:03:01;;;;;;;;;;;;;;;;;;5025834;28;19916;-78
2022/08/27 09:05:26;;;;;;;;;;;;;;;;;;5006560;28;19985;-78
2022/08/27 09:07:51;;;;;;;;;;;;;;;;;;5018942;28;19913;-78
2022/08/27 09:10:16;;;;;;;;;;;;;;;;;;5033018;28;19927;-79
2022/08/27 09:12:42;;;;;;;;;;;;;;;;;;5024838;28;19959;-78
2022/08/27 09:15:07;;;;;;;;;;;;;;;;;;5009164;28;19905;-78
2022/08/27 09:17:33;;;;;;;;;;;;;;;;;;5031866;28;19913;-78
2022/08/27 09:19:58;;;;;;;;;;;;;;;;;;5009547;28;19904;-78
2022/08/27 09:22:23;;;;;;;;;;;;;;;;;;5008012;28;20334;-78
2022/08/27 09:24:49;;;;;;;;;;;;;;;;;;5019970;28;20220;-78
2022/08/27 09:27:14;;;;;;;;;;;;;;;;;;5009772;28;19913;-77
2022/08/27 09:29:39;;;;;;;;;;;;;;;;;;5024534;28;19953;-77
2022/08/27 09:32:04;;;;;;;;;;;;;;;;;;5026293;28;20660;-76
2022/08/27 09:34:29;;;;;;;;;;;;;;;;;;5032976;28;19906;-77
2022/08/27 09:36:55;;;;;;;;;;;;;;;;;;5027183;28;19935;-77
2022/08/27 09:39:20;;;;;;;;;;;;;;;;;;5019239;28;19912;-77
2022/08/27 09:41:45;;;;;;;;;;;;;;;;;;5018976;28;19916;-77
2022/08/27 09:44:10;;;;;;;;;;;;;;;;;;5035465;28;19916;-77
2022/08/27 09:46:35;;;;;;;;;;;;;;;;;;5018106;28;19943;-77
2022/08/27 09:49:01;;;;;;;;;;;;;;;;;;5010946;28;19909;-77
2022/08/27 09:51:26;;;;;;;;;;;;;;;;;;5033113;28;20267;-77
2022/08/27 09:53:51;;;;;;;;;;;;;;;;;;5020859;28;19908;-77
2022/08/27 09:56:16;;;;;;;;;;;;;;;;;;5034279;28;19909;-76
2022/08/27 09:58:42;;;;;;;;;;;;;;;;;;5008766;28;19941;-78
2022/08/27 10:01:07;;;;;;;;;;;;;;;;;;5035265;28;19919;-79
2022/08/27 10:03:32;;;;;;;;;;;;;;;;;;5023736;28;20402;-79
2022/08/27 10:05:57;;;;;;;;;;;;;;;;;;5019929;28;20012;-78
2022/08/27 10:08:22;;;;;;;;;;;;;;;;;;5008381;28;19917;-78
2022/08/27 10:10:48;;;;;;;;;;;;;;;;;;5035681;28;19920;-79
2022/08/27 10:13:13;;;;;;;;;;;;;;;;;;5013080;28;20722;-78
2022/08/27 10:15:38;;;;;;;;;;;;;;;;;;5035885;28;19913;-79
2022/08/27 10:18:03;;;;;;;;;;;;;;;;;;5029863;28;20300;-78
2022/08/27 10:20:28;;;;;;;;;;;;;;;;;;5027349;28;19918;-78
2022/08/27 10:22:53;;;;;;;;;;;;;;;;;;5011595;28;19960;-77
2022/08/27 10:25:19;;;;;;;;;;;;;;;;;;5028455;28;19956;-79
2022/08/27 10:27:44;;;;;;;;;;;;;;;;;;5029768;28;20397;-78
2022/08/27 10:30:09;;;;;;;;;;;;;;;;;;5012843;28;19917;-77
2022/08/27 10:32:34;;;;;;;;;;;;;;;;;;5011925;28;19910;-79
2022/08/27 10:35:00;;;;;;;;;;;;;;;;;;5014514;28;20004;-79
2022/08/27 10:37:25;;;;;;;;;;;;;;;;;;5011597;28;19905;-78
2022/08/27 10:39:50;;;;;;;;;;;;;;;;;;5028463;28;19913;-77
2022/08/27 10:42:15;;;;;;;;;;;;;;;;;;5016765;28;19906;-76
2022/08/27 10:44:41;;;;;;;;;;;;;;;;;;5029813;28;20360;-77
2022/08/27 10:47:06;;;;;;;;;;;;;;;;;;5028423;28;20248;-77
2022/08/27 10:49:31;;;;;;;;;;;;;;;;;;5028982;28;19917;-76
2022/08/27 10:51:57;;;;;;;;;;;;;;;;;;5022179;28;19905;-77
2022/08/27 10:54:22;;;;;;;;;;;;;;;;;;5014757;28;19919;-77
2022/08/27 10:56:48;;;;;;;;;;;;;;;;;;5015912;28;19973;-77
2022/08/27 10:59:13;;;;;;;;;;;;;;;;;;5040187;28;19939;-77
2022/08/27 11:01:38;;;;;;;;;;;;;;;;;;5022918;28;20005;-77
2022/08/27 11:04:03;;;;;;;;;;;;;;;;;;5013634;28;19956;-77
2022/08/27 11:06:28;;;;;;;;;;;;;;;;;;5023839;28;19921;-77
2022/08/27 11:08:54;;;;;;;;;;;;;;;;;;5027383;28;20117;-77
2022/08/27 11:11:19;;;;;;;;;;;;;;;;;;5030227;28;19917;-77
2022/08/27 11:13:45;;;;;;;;;;;;;;;;;;5032430;28;20400;-77
2022/08/27 11:16:10;;;;;;;;;;;;;;;;;;5026263;28;19909;-77
2022/08/27 11:18:36;;;;;;;;;;;;;;;;;;5039159;28;19909;-77
2022/08/27 11:21:01;;;;;;;;;;;;;;;;;;5041320;28;20001;-77
2022/08/27 11:23:26;;;;;;;;;;;;;;;;;;5024589;28;20355;-77
2022/08/27 11:25:51;;;;;;;;;;;;;;;;;;5012894;28;20428;-77
2022/08/27 11:28:16;;;;;;;;;;;;;;;;;;5028653;28;19913;-78
2022/08/27 11:30:42;;;;;;;;;;;;;;;;;;5026715;28;19905;-78
2022/08/27 11:33:07;;;;;;;;;;;;;;;;;;5037215;28;20259;-79
2022/08/27 11:35:32;;;;;;;;;;;;;;;;;;5011279;28;19912;-79
2022/08/27 11:37:57;;;;;;;;;;;;;;;;;;5027571;28;19909;-78
2022/08/27 11:40:22;;;;;;;;;;;;;;;;;;5033013;28;19909;-79
2022/08/27 11:42:48;;;;;;;;;;;;;;;;;;5054438;22;20320;-76
2022/08/27 11:45:13;;;;;;;;;;;;;;;;;;5012792;28;19994;-77
2022/08/27 11:47:38;;;;;;;;;;;;;;;;;;5028245;28;19937;-76
2022/08/27 11:50:04;;;;;;;;;;;;;;;;;;5043298;28;19917;-77
2022/08/27 11:52:29;;;;;;;;;;;;;;;;;;5027777;28;19948;-76
2022/08/27 11:54:55;;;;;;;;;;;;;;;;;;5029079;28;19947;-76
2022/08/27 11:57:20;;;;;;;;;;;;;;;;;;5029807;28;19909;-77
2022/08/27 11:59:45;;;;;;;;;;;;;;;;;;5028098;28;20266;-77
2022/08/27 12:02:10;;;;;;;;;;;;;;;;;;5027607;28;19952;-76
2022/08/27 12:04:35;;;;;;;;;;;;;;;;;;5028945;28;19956;-77
2022/08/27 12:07:00;;;;;;;;;;;;;;;;;;5028067;28;19919;-77
2022/08/27 12:09:26;;;;;;;;;;;;;;;;;;5022695;28;20003;-77
2022/08/27 12:11:51;;;;;;;;;;;;;;;;;;5025471;28;19913;-77
2022/08/27 12:14:16;;;;;;;;;;;;;;;;;;5027866;28;20003;-76
2022/08/27 12:16:41;;;;;;;;;;;;;;;;;;5027114;28;19995;-77
2022/08/27 12:19:06;;;;;;;;;;;;;;;;;;5027287;28;19905;-76
2022/08/27 12:21:32;;;;;;;;;;;;;;;;;;5027188;28;20327;-76
2022/08/27 12:23:57;;;;;;;;;;;;;;;;;;5028673;28;20372;-77
2022/08/27 12:26:22;;;;;;;;;;;;;;;;;;5029048;28;19912;-77
2022/08/27 12:28:47;;;;;;;;;;;;;;;;;;5028751;28;20393;-76
2022/08/27 12:31:12;;;;;;;;;;;;;;;;;;5018000;28;19920;-77
2022/08/27 12:33:37;;;;;;;;;;;;;;;;;;5028466;28;19905;-77
2022/08/27 12:36:03;;;;;;;;;;;;;;;;;;5029031;28;20736;-77
2022/08/27 12:38:28;;;;;;;;;;;;;;;;;;5027360;28;20261;-76
2022/08/27 12:40:53;;;;;;;;;;;;;;;;;;5025886;28;19913;-77
2022/08/27 12:43:18;;;;;;;;;;;;;;;;;;5028207;28;20244;-77
2022/08/27 12:45:43;;;;;;;;;;;;;;;;;;5025572;28;19975;-77
2022/08/27 12:48:09;;;;;;;;;;;;;;;;;;5017806;28;19908;-78
2022/08/27 12:50:34;;;;;;;;;;;;;;;;;;5027777;28;19921;-75
2022/08/27 12:53:00;;;;;;;;;;;;;;;;;;5027187;28;20295;-78
2022/08/27 12:55:25;;;;;;;;;;;;;;;;;;5026430;28;20283;-77
2022/08/27 12:57:51;;;;;;;;;;;;;;;;;;5024094;28;19911;-77
2022/08/27 13:00:18;;;;;;;;;;;;;;;;;;5025969;28;19909;-76
2022/08/27 13:02:43;;;;;;;;;;;;;;;;;;5013961;28;20306;-77
2022/08/27 13:05:08;;;;;;;;;;;;;;;;;;5017463;28;19998;-77
2022/08/27 13:07:33;;;;;;;;;;;;;;;;;;5025941;28;19996;-77
2022/08/27 13:09:59;;;;;;;;;;;;;;;;;;5017065;28;19913;-77
2022/08/27 13:12:24;;;;;;;;;;;;;;;;;;5026982;28;19913;-76
2022/08/27 13:14:52;;;;;;;;;;;;;;;;;;5026988;28;19913;-77
2022/08/27 13:17:17;;;;;;;;;;;;;;;;;;5028635;28;19905;-77
2022/08/27 13:19:42;;;;;;;;;;;;;;;;;;5025668;28;19912;-77
2022/08/27 13:22:07;;;;;;;;;;;;;;;;;;5026202;28;20366;-77
2022/08/27 13:24:32;;;;;;;;;;;;;;;;;;5025530;28;19945;-78
2022/08/27 13:26:58;;;;;;;;;;;;;;;;;;5019178;28;19909;-77
2022/08/27 13:29:23;;;;;;;;;;;;;;;;;;5008775;28;19991;-77
2022/08/27 13:31:48;;;;;;;;;;;;;;;;;;5029235;28;19909;-76
2022/08/27 13:34:13;;;;;;;;;;;;;;;;;;5024759;28;20403;-77
2022/08/27 13:36:38;;;;;;;;;;;;;;;;;;5027311;28;20393;-77
2022/08/27 13:39:03;;;;;;;;;;;;;;;;;;5029471;28;19913;-76
2022/08/27 13:41:29;;;;;;;;;;;;;;;;;;5012112;28;19929;-77
2022/08/27 13:43:54;;;;;;;;;;;;;;;;;;5033300;28;20419;-77
2022/08/27 13:46:19;;;;;;;;;;;;;;;;;;5029745;28;19912;-78
2022/08/27 13:48:44;;;;;;;;;;;;;;;;;;5027770;28;19998;-77
2022/08/27 13:51:09;;;;;;;;;;;;;;;;;;5030191;28;19970;-78
2022/08/27 13:56:18;;;;;;;;;;;;;;;;;;5030760;28;19995;-77
2022/08/27 13:58:43;;;;;;;;;;;;;;;;;;5030096;28;19992;-78
2022/08/27 14:01:09;;;;;;;;;;;;;;;;;;5028662;28;19913;-78
2022/08/27 14:03:34;;;;;;;;;;;;;;;;;;5016943;28;20239;-76
2022/08/27 14:05:59;;;;;;;;;;;;;;;;;;5030838;28;19916;-75
2022/08/27 14:08:24;;;;;;;;;;;;;;;;;;5021119;28;19963;-79
2022/08/27 14:10:49;;;;;;;;;;;;;;;;;;5028458;28;20008;-77
2022/08/27 14:13:14;;;;;;;;;;;;;;;;;;5028841;28;19909;-79
2022/08/27 14:15:40;;;;;;;;;;;;;;;;;;5030477;28;19980;-77
2022/08/27 14:18:05;;;;;;;;;;;;;;;;;;5030054;28;19905;-77
2022/08/27 14:20:30;;;;;;;;;;;;;;;;;;5029437;28;19909;-77
2022/08/27 14:22:56;;;;;;;;;;;;;;;;;;5020699;28;19905;-78
2022/08/27 14:25:21;;;;;;;;;;;;;;;;;;5028567;28;19913;-77
2022/08/27 14:27:46;;;;;;;;;;;;;;;;;;5028217;28;19984;-78
2022/08/27 14:30:11;;;;;;;;;;;;;;;;;;5028356;28;19932;-78
2022/08/27 14:32:37;;;;;;;;;;;;;;;;;;5028301;28;20358;-76
2022/08/27 14:35:02;;;;;;;;;;;;;;;;;;5030807;28;19982;-77
2022/08/27 14:37:28;;;;;;;;;;;;;;;;;;5029540;28;19948;-76
2022/08/27 14:39:53;;;;;;;;;;;;;;;;;;5019753;28;19913;-78
2022/08/27 14:42:18;;;;;;;;;;;;;;;;;;5028361;28;20369;-78
2022/08/27 14:44:44;;;;;;;;;;;;;;;;;;5026949;28;20013;-79
2022/08/27 14:47:09;;;;;;;;;;;;;;;;;;5028452;28;19916;-77
2022/08/27 14:49:34;;;;;;;;;;;;;;;;;;5028053;28;19916;-78
2022/08/27 14:51:59;;;;;;;;;;;;;;;;;;5018275;28;19952;-77
2022/08/27 14:54:24;;;;;;;;;;;;;;;;;;5029268;28;19912;-78
2022/08/27 14:56:50;;;;;;;;;;;;;;;;;;5015479;28;19975;-79
2022/08/27 14:59:15;;;;;;;;;;;;;;;;;;5018472;28;19920;-77
2022/08/27 15:01:40;;;;;;;;;;;;;;;;;;5026844;28;19905;-77
2022/08/27 15:04:06;;;;;;;;;;;;;;;;;;5037368;28;19917;-77
2022/08/27 15:06:31;;;;;;;;;;;;;;;;;;5028624;28;19913;-78
2022/08/27 15:08:56;;;;;;;;;;;;;;;;;;5027209;28;19910;-77
2022/08/27 15:11:22;;;;;;;;;;;;;;;;;;5030169;28;20309;-77
2022/08/27 15:13:47;;;;;;;;;;;;;;;;;;5018870;28;19952;-78
2022/08/27 15:16:12;;;;;;;;;;;;;;;;;;5028233;28;20366;-77
2022/08/27 15:18:37;;;;;;;;;;;;;;;;;;5026563;28;20178;-78
2022/08/27 15:21:03;;;;;;;;;;;;;;;;;;5025921;28;20414;-77
2022/08/27 15:23:28;;;;;;;;;;;;;;;;;;5027289;28;19913;-78
2022/08/27 15:25:53;;;;;;;;;;;;;;;;;;5030481;28;20189;-77
2022/08/27 15:28:18;;;;;;;;;;;;;;;;;;5029465;28;19912;-78
2022/08/27 15:30:43;;;;;;;;;;;;;;;;;;5029714;28;20333;-78
2022/08/27 15:33:08;;;;;;;;;;;;;;;;;;5030113;28;19913;-76
2022/08/27 15:35:34;;;;;;;;;;;;;;;;;;5014012;28;19925;-76
2022/08/27 15:37:59;;;;;;;;;;;;;;;;;;5028934;28;19916;-76
2022/08/27 15:40:24;;;;;;;;;;;;;;;;;;5018448;28;19949;-77
2022/08/27 15:42:50;;;;;;;;;;;;;;;;;;5026305;28;19909;-78
2022/08/27 15:45:15;;;;;;;;;;;;;;;;;;5021186;28;19909;-77
2022/08/27 15:47:41;;;;;;;;;;;;;;;;;;5028951;28;20039;-78
2022/08/27 15:50:06;;;;;;;;;;;;;;;;;;5026171;28;19905;-77
2022/08/27 15:52:31;;;;;;;;;;;;;;;;;;5026542;28;19913;-78
2022/08/27 15:54:56;;;;;;;;;;;;;;;;;;5018420;28;19981;-78
2022/08/27 15:57:21;;;;;;;;;;;;;;;;;;5021344;28;19920;-76
2022/08/27 15:59:47;;;;;;;;;;;;;;;;;;5028936;28;19941;-78
2022/08/27 16:02:12;;;;;;;;;;;;;;;;;;5029722;28;19909;-78
2022/08/27 16:04:37;;;;;;;;;;;;;;;;;;5018410;28;19905;-77
2022/08/27 16:07:02;;;;;;;;;;;;;;;;;;5026335;28;19913;-77
2022/08/27 16:09:27;;;;;;;;;;;;;;;;;;5029766;28;19912;-77
2022/08/27 16:11:53;;;;;;;;;;;;;;;;;;5019427;28;20869;-77
2022/08/27 16:14:18;;;;;;;;;;;;;;;;;;5027158;28;20780;-77
2022/08/27 16:16:43;;;;;;;;;;;;;;;;;;5013780;28;19909;-77
2022/08/27 16:19:08;;;;;;;;;;;;;;;;;;5025595;28;19909;-77
2022/08/27 16:21:33;;;;;;;;;;;;;;;;;;5025702;28;19913;-78
2022/08/27 16:23:59;;;;;;;;;;;;;;;;;;5028591;28;19916;-76
2022/08/27 16:26:24;;;;;;;;;;;;;;;;;;5028890;28;19988;-77
2022/08/27 16:28:49;;;;;;;;;;;;;;;;;;5025971;28;19905;-77
2022/08/27 16:31:14;;;;;;;;;;;;;;;;;;5016912;28;20067;-77
2022/08/27 16:33:39;;;;;;;;;;;;;;;;;;5025398;28;19951;-78
2022/08/27 16:36:05;;;;;;;;;;;;;;;;;;5024740;28;19913;-78
2022/08/27 16:38:30;;;;;;;;;;;;;;;;;;5024796;28;19955;-77
2022/08/27 16:40:55;;;;;;;;;;;;;;;;;;5024370;28;19908;-78
2022/08/27 16:43:20;;;;;;;;;;;;;;;;;;5016065;28;19913;-76
2022/08/27 16:45:45;;;;;;;;;;;;;;;;;;5025667;28;19913;-76